Aspen Hill, MD

4:24 AM EST on January 30, 2015 (GMT -0500)
Parker Ave, Wheaton, MD | Change Station
CLOSE
Current Station
Personal Weather Station
Location: Wheaton, Silver Spring, MD
Elevation: 390 ft
Nearby Weather Stations
Active Advisory: Wind Advisory, Special Statement

Elev 390 ft 39.05 °N, 77.06 °W | Updated 2 seconds ago

Overcast
Overcast
37.0 °F
Feels Like 37 °F
N
1.1
Wind Variable Wind from SSW
Gusts 6.7 mph

Today
High -- | Low -- °F
--% Chance of Precip.
Yesterday
High -- | Low -- °F
Precip. -- in
7:16 AM 5:26 PM
Waxing Gibbous, 81% visible
Pressure 29.93 in
Visibility 10.0 miles
Clouds Few 6000 ft
Mostly Cloudy 7000 ft
Mostly Cloudy 12000 ft
Windchill 37 °F
Dew Point 28 °F
Humidity 71%
Rainfall 0.00 in
Snow Depth Not available.
UV 0 out of 12
Pollen .30 out of 12
Air Quality Not available.
Flu Activity Not available.
METAR KGAI 300915Z 30008KT 10SM FEW060 BKN070 BKN120 03/M03 A2993 RMK AO1

More Conditions Fewer Conditions

Pressure 29.93 in
Visibility 10.0 miles
Clouds Few 6000 ft
Mostly Cloudy 7000 ft
Mostly Cloudy 12000 ft
Windchill 37 °F
Dew Point 28 °F
Humidity 71%
Rainfall 0.00 in
Snow Depth Not available.
UV 0 out of 12
Pollen .30 out of 12
Air Quality Not available.
Flu Activity Not available.
METAR KGAI 300915Z 30008KT 10SM FEW060 BKN070 BKN120 03/M03 A2993 RMK AO1

More Conditions Fewer Conditions

10-Day Weather Forecast

Almanac

Astronomy

Jan. 30, 2015 Rise Set
Actual Time
Civil Twilight
Nautical Twilight
Astronomical Twilight
Moon
Length of Visible Light
Length of Day
Tomorrow will be .
, % of the Moon is Illuminated

Today's Extremes

State Highs State Lows

Community

WunderPhotos

Upload Photos

1,791,737 photos uploaded!

WunderBlogs® & News

Nearby

Air Quality

  Air Quality AQ Index Pollutant
Not available.

Snow Depth

Station Depth Elevation

Earthquake Activity

City Distance Mag. Time & Date
Minimum magnitude displayed is 2.5.

Coastal Water Temperatures

Place Temperature

Nearby Weather Stations